EST,Max TemperatureF,Mean TemperatureF,Min TemperatureF,Max Dew PointF,MeanDew PointF,Min DewpointF,Max Humidity, Mean Humidity, Min Humidity, Max Sea Level PressureIn, Mean Sea Level PressureIn, Min Sea Level PressureIn, Max VisibilityMiles, Mean VisibilityMiles, Min VisibilityMiles, Max Wind SpeedMPH, Mean Wind SpeedMPH, Max Gust SpeedMPH,PrecipitationIn, CloudCover, Events, WindDirDegrees
2013-1-1,36,33,30,34,31,24,100,85,70,30.13,30.07,30.03,10,6,0,8,2,13,0.14,8,Fog-Rain,320
2013-1-2,36,30,24,25,19,14,85,64,43,30.25,30.19,30.10,10,10,7,9,1,12,T,3,,345
2013-1-3,41,31,21,23,20,18,96,72,47,30.34,30.27,30.20,10,9,5,14,3,21,0.00,0,,252
2013-1-4,39,34,29,22,21,20,69,59,48,30.39,30.35,30.29,10,10,10,16,8,22,0.00,6,,240
2013-1-5,43,33,22,25,23,21,88,70,51,30.44,30.33,30.20,10,10,7,8,3,12,0.00,2,,201
2013-1-6,45,39,32,30,26,21,70,62,53,30.35,30.17,30.05,10,10,10,17,8,26,T,8,,237
2013-1-7,42,33,24,25,23,21,81,63,45,30.51,30.40,30.27,10,9,5,9,2,14,0.00,5,,83
2013-1-8,53,37,21,27,24,19,92,65,38,30.41,30.33,30.29,10,9,7,12,3,16,0.00,0,,140
2013-1-9,51,42,32,48,38,26,93,77,60,30.52,30.39,30.27,10,8,0,8,3,12,0.07,4,Fog-Rain,202
2013-1-10,46,38,30,40,36,29,100,88,76,30.55,30.44,30.17,10,4,0,9,3,13,0.00,6,Fog,60
2013-1-11,62,52,41,57,52,39,100,86,72,30.16,30.03,29.98,10,7,2,20,6,30,0.34,6,Rain,185
2013-1-12,67,58,49,61,57,51,100,91,81,30.09,30.01,29.91,10,9,2,8,3,10,0.04,4,Rain,177
2013-1-13,64,56,48,58,56,46,100,86,72,30.03,29.93,29.86,10,8,2,17,6,29,0.43,7,Rain,199
2013-1-14,48,39,30,45,32,25,93,82,70,30.40,30.26,30.05,10,8,2,17,6,28,0.06,7,Rain-Snow,334
2013-1-15,36,33,30,31,28,26,92,84,75,30.35,30.24,30.06,10,7,3,10,6,15,0.57,8,Rain,23
2013-1-16,36,34,32,34,32,30,100,95,89,30.11,30.03,29.92,10,6,2,14,4,17,0.99,7,Rain,245
2013-1-17,35,32,29,32,29,28,92,84,75,30.33,30.18,30.11,10,9,7,15,4,18,0.00,4,,328
2013-1-18,38,31,23,27,20,15,92,68,44,30.57,30.46,30.34,10,10,9,12,6,17,0.00,0,,228
2013-1-19,55,43,31,26,23,20,69,49,28,30.33,30.19,30.01,10,10,10,18,11,26,0.00,0,,203
2013-1-20,46,37,28,31,19,4,62,41,20,30.18,30.10,29.99,10,10,10,18,8,25,0.00,1,,272
2013-1-21,36,27,18,18,11,1,74,56,38,30.22,30.12,30.04,10,10,10,22,8,31,0.00,3,,262
2013-1-22,22,17,11,1,-1,-4,63,49,35,30.39,30.32,30.20,10,10,10,18,7,29,T,2,,267
2013-1-23,24,19,13,8,2,-1,58,48,38,30.39,30.28,30.09,10,10,9,12,4,16,T,7,Snow,235
2013-1-24,26,22,18,12,6,2,68,52,36,30.56,30.42,30.11,10,10,6,17,5,24,T,3,Snow,4
2013-1-25,27,23,19,24,16,4,100,75,49,30.48,30.16,30.03,10,5,0,9,4,12,0.09,7,Fog-Snow,162
2013-1-26,35,30,24,25,21,18,92,72,52,30.47,30.30,30.18,10,8,5,14,5,31,0.00,7,,286
2013-1-27,41,30,19,34,22,17,92,69,46,30.48,30.40,30.26,10,8,3,7,4,12,0.10,3,Rain,61
2013-1-28,61,53,34,52,44,34,100,73,46,30.25,30.16,30.10,10,6,2,18,8,26,0.33,7,Rain,203
2013-1-29,70,70,50,54,51,48,89,61,32,30.12,29.99,29.76,10,10,10,17,8,25,0.00,4,,188
2013-1-30,70,55,39,57,51,36,93,75,56,29.70,29.51,29.35,10,6,1,30,11,46,1.38,7,Rain,220
2013-1-31,42,35,28,36,24,19,85,67,48,29.96,29.86,29.54,10,6,0,25,11,38,0.08,8,Fog-Rain-Snow,254